ADDS METAR Data INFO
IDs: Format: Raw Decoded Include TAF

Data at: 0742 UTC 29 May 2017

METAR for:KJAX (Jacksonville Intl, FL, US)
Text:KJAX 290656Z 26005KT 10SM CLR 24/23 A2999 RMK AO2 SLP155 T02390233 $
Temperature: 23.9°C ( 75°F)
Dewpoint: 23.3°C ( 74°F) [RH = 96%]
Pressure (altimeter):29.99 inches Hg (1015.7 mb) [Sea level pressure: 1015.5 mb]
Winds:from the W (260 degrees) at 6 MPH (5 knots; 2.6 m/s)
Visibility:10 or more sm (16+ km)
Ceiling:at least 12,000 feet AGL
Clouds:sky clear below 12,000 feet AGL
QC Flag:SOME DATA ABOVE MAY BE INACCURATE!!!"$" is an indication the sensor requires maintenance.

METAR for:KCRG (Jacksonville/Executi, FL, US)
Text:KCRG 290653Z AUTO 28010KT 10SM CLR 25/22 A2999 RMK AO2 SLP156 T02500222
Temperature: 25.0°C ( 77°F)
Dewpoint: 22.2°C ( 72°F) [RH = 84%]
Pressure (altimeter):29.99 inches Hg (1015.7 mb) [Sea level pressure: 1015.6 mb]
Winds:from the W (280 degrees) at 12 MPH (10 knots; 5.1 m/s)
Visibility:10 or more sm (16+ km)
Ceiling:at least 12,000 feet AGL
Clouds:sky clear below 12,000 feet AGL
QC Flag:automated observation with no human augmentation

METAR for:KNIP (Jacksonville (NAS), FL, US)
Text:KNIP 290653Z 27007KT 10SM CLR 26/23 A3001 RMK AO2 SLP157 T02560228
Temperature: 25.6°C ( 78°F)
Dewpoint: 22.8°C ( 73°F) [RH = 85%]
Pressure (altimeter):30.01 inches Hg (1016.3 mb) [Sea level pressure: 1015.7 mb]
Winds:from the W (270 degrees) at 8 MPH (7 knots; 3.6 m/s)
Visibility:10 or more sm (16+ km)
Ceiling:at least 12,000 feet AGL
Clouds:sky clear below 12,000 feet AGL

METAR for:KNRB (Mayport (NS), FL, US)
Text:KNRB 290652Z AUTO 27007KT 10SM CLR 26/24 A2999 RMK AO2 SLP153 T02610239 $
Temperature: 26.1°C ( 79°F)
Dewpoint: 23.9°C ( 75°F) [RH = 88%]
Pressure (altimeter):29.99 inches Hg (1015.7 mb) [Sea level pressure: 1015.3 mb]
Winds:from the W (270 degrees) at 8 MPH (7 knots; 3.6 m/s)
Visibility:10 or more sm (16+ km)
Ceiling:at least 12,000 feet AGL
Clouds:sky clear below 12,000 feet AGL
QC Flag:automated observation with no human augmentation; SOME DATA ABOVE MAY BE INACCURATE!!!"$" is an indication the sensor requires maintenance.

METAR for:KFHB (Fernandina Beach Mun, FL, US)
Text:KFHB 290715Z AUTO 27007KT 10SM CLR 26/23 A2997 RMK AO1
Temperature: 26.0°C ( 79°F)
Dewpoint: 23.0°C ( 73°F) [RH = 84%]
Pressure (altimeter):29.97 inches Hg (1015.0 mb)
Winds:from the W (270 degrees) at 8 MPH (7 knots; 3.6 m/s)
Visibility:10 or more sm (16+ km)
Ceiling:at least 12,000 feet AGL
Clouds:sky clear below 12,000 feet AGL
QC Flag:automated observation with no human augmentation

METAR for:KVQQ (Jacksonville/Cecil A, FL, US)
Text:KVQQ 290735Z AUTO 25004KT 10SM FEW045 24/24 A3001 RMK AO2
Temperature: 24.0°C ( 75°F)
Dewpoint: 24.0°C ( 75°F) [RH = 100%]
Pressure (altimeter):30.01 inches Hg (1016.3 mb)
Winds:from the WSW (250 degrees) at 5 MPH (4 knots; 2.1 m/s)
Visibility:10 or more sm (16+ km)
Ceiling:at least 12,000 feet AGL
Clouds: few clouds at 4500 feet AGL
QC Flag:automated observation with no human augmentation


Page loaded:  07:42 UTC  |   12:42 AM Pacific  |   01:42 AM Mountain  |   02:42 AM Central  |   03:42 AM Eastern

 

ADVISORIES

FORECASTS

FORECASTS

OBSERVATIONS

USER TOOLS

ABOUT US